Time;durP1;ratioP1;P1;durP2;ratioP2;P2;SDS_P1;SDS_P2;PMS_P1;PMS_P2;Temp;Humidity;BMP_temperature;BMP_pressure;BME280_temperature;BME280_humidity;BME280_pressure;Samples;Min_cycle;Max_cycle;Signal;HPM_P1;HPM_P2
2021/06/28 00:00:29;;;;;;;10.03;6.37;;;;;;;25.46;47.40;101177.28;5055384;28;20473;-48
2021/06/28 00:03:00;;;;;;;9.23;7.20;;;;;;;25.81;46.24;101179.47;5057408;28;20501;-43
2021/06/28 00:05:28;;;;;;;11.23;7.17;;;;;;;25.85;46.34;101178.53;5058006;28;20496;-44
2021/06/28 00:07:56;;;;;;;11.97;7.33;;;;;;;25.92;46.27;101172.25;5054100;28;20480;-47
2021/06/28 00:10:25;;;;;;;14.73;6.40;;;;;;;25.58;47.00;101172.78;5055392;28;20486;-45
2021/06/28 00:12:54;;;;;;;10.20;6.63;;;;;;;25.63;46.67;101181.47;5052041;28;20495;-43
2021/06/28 00:15:24;;;;;;;11.50;7.47;;;;;;;25.17;48.39;101181.19;5058739;28;20968;-46
2021/06/28 00:17:52;;;;;;;10.10;7.20;;;;;;;25.30;48.04;101178.38;5056026;28;20481;-44
2021/06/28 00:20:26;;;;;;;12.80;7.97;;;;;;;25.59;47.47;101182.44;5058457;28;20472;-44
2021/06/28 00:22:54;;;;;;;9.93;7.67;;;;;;;25.55;47.20;101181.59;5056164;28;21457;-44
2021/06/28 00:25:22;;;;;;;11.73;7.70;;;;;;;25.12;48.86;101190.06;5058365;28;20950;-44
2021/06/28 00:27:50;;;;;;;11.60;8.50;;;;;;;25.60;47.19;101186.81;5051908;28;20496;-46
2021/06/28 00:30:36;;;;;;;11.37;8.10;;;;;;;25.51;47.52;101186.91;5055480;28;20555;-43
2021/06/28 00:33:04;;;;;;;9.23;7.43;;;;;;;25.27;48.69;101194.28;5057242;28;20489;-45
2021/06/28 00:35:33;;;;;;;12.70;9.37;;;;;;;25.70;47.51;101193.72;5056852;28;20460;-45
2021/06/28 00:38:01;;;;;;;14.30;9.00;;;;;;;25.67;47.43;101192.88;5053881;28;20496;-46
2021/06/28 00:40:29;;;;;;;13.90;8.60;;;;;;;25.70;47.25;101190.19;5055217;28;20480;-45
2021/06/28 00:42:56;;;;;;;12.43;9.13;;;;;;;25.29;48.54;101197.75;5053840;28;20475;-45
2021/06/28 00:45:25;;;;;;;10.10;8.30;;;;;;;25.51;47.81;101192.19;5054673;28;20492;-46
2021/06/28 00:47:55;;;;;;;12.43;8.10;;;;;;;25.07;49.04;101190.13;5053801;28;20483;-43
2021/06/28 00:50:24;;;;;;;12.57;10.00;;;;;;;25.37;48.44;101195.88;5054995;28;20489;-45
2021/06/28 00:52:56;;;;;;;13.87;9.27;;;;;;;25.42;48.03;101188.78;5053693;28;20481;-43
2021/06/28 00:55:25;;;;;;;13.43;9.83;;;;;;;25.40;48.39;101192.34;5054895;28;20455;-45
2021/06/28 00:57:52;;;;;;;14.07;10.13;;;;;;;25.54;47.80;101187.78;5053724;28;20799;-43
2021/06/28 01:00:21;;;;;;;14.90;10.13;;;;;;;25.06;49.07;101196.28;5054495;28;20480;-44
2021/06/28 01:02:49;;;;;;;12.27;8.87;;;;;;;24.72;50.10;101197.50;5053599;28;20494;-46
2021/06/28 01:05:18;;;;;;;12.87;9.70;;;;;;;24.56;50.90;101199.44;5045202;28;20483;-44
2021/06/28 01:07:46;;;;;;;14.37;10.70;;;;;;;24.75;50.55;101201.84;5037468;28;20480;-45
2021/06/28 01:10:16;;;;;;;16.30;11.50;;;;;;;24.80;50.19;101202.69;5038828;28;20482;-46
2021/06/28 01:12:45;;;;;;;17.30;11.00;;;;;;;24.99;49.84;101191.97;5047830;28;20798;-44
2021/06/28 01:15:13;;;;;;;16.70;12.83;;;;;;;25.24;49.02;101189.03;5048186;28;20897;-43
2021/06/28 01:17:41;;;;;;;19.10;12.43;;;;;;;25.21;48.92;101188.19;5046272;28;20475;-45
2021/06/28 01:20:11;;;;;;;19.40;11.87;;;;;;;25.27;48.54;101189.84;5049073;28;20484;-46
2021/06/28 01:22:41;;;;;;;17.00;12.30;;;;;;;24.99;49.41;101184.03;5037302;28;20479;-44
2021/06/28 01:25:13;;;;;;;20.90;12.00;;;;;;;24.73;50.49;101187.81;5038260;28;20487;-44
2021/06/28 01:27:41;;;;;;;18.00;13.10;;;;;;;24.81;49.93;101181.59;5036709;28;20491;-43
2021/06/28 01:30:11;;;;;;;18.47;12.80;;;;;;;25.06;49.64;101185.72;5038049;28;20479;-42
2021/06/28 01:32:40;;;;;;;18.30;13.30;;;;;;;24.94;49.74;101187.63;5037110;28;20484;-45
2021/06/28 01:35:10;;;;;;;19.30;13.00;;;;;;;25.13;49.18;101171.56;5037844;28;20506;-43
2021/06/28 01:37:37;;;;;;;22.50;13.30;;;;;;;24.90;49.71;101180.63;5036799;28;20487;-44
2021/06/28 01:40:07;;;;;;;19.77;13.97;;;;;;;25.06;49.59;101176.03;5038156;28;20481;-44
2021/06/28 01:42:36;;;;;;;22.93;13.07;;;;;;;24.88;50.24;101177.16;5036432;28;20479;-46
2021/06/28 01:45:05;;;;;;;20.30;13.87;;;;;;;25.24;49.15;101178.47;5038031;28;20488;-43
2021/06/28 01:47:32;;;;;;;19.63;13.53;;;;;;;25.30;49.21;101178.38;5036595;28;20485;-44
2021/06/28 01:50:00;;;;;;;20.73;13.80;;;;;;;25.29;48.81;101177.53;5037956;28;20480;-45
2021/06/28 01:52:28;;;;;;;20.07;13.20;;;;;;;25.49;48.31;101176.38;5036808;28;20480;-46
2021/06/28 01:54:56;;;;;;;21.43;13.80;;;;;;;25.11;49.25;101175.97;5037805;28;20464;-46
2021/06/28 01:57:24;;;;;;;18.30;13.37;;;;;;;25.00;49.69;101178.75;5043363;28;20480;-43
2021/06/28 01:59:53;;;;;;;22.73;15.97;;;;;;;25.01;49.49;101172.56;5053094;28;20493;-43
2021/06/28 02:02:20;;;;;;;19.97;14.63;;;;;;;25.05;49.60;101173.41;5038688;28;20492;-44
2021/06/28 02:04:48;;;;;;;22.63;15.63;;;;;;;25.14;48.97;101172.44;5054345;28;20492;-45
2021/06/28 02:07:15;;;;;;;21.27;14.87;;;;;;;25.11;48.99;101162.78;5039877;28;20482;-43
2021/06/28 02:09:43;;;;;;;28.70;16.97;;;;;;;25.06;49.44;101167.25;5054477;28;20817;-44
2021/06/28 02:12:11;;;;;;;23.90;16.00;;;;;;;25.00;49.29;101155.00;5039719;28;20501;-44
2021/06/28 02:14:38;;;;;;;24.37;16.50;;;;;;;25.29;48.45;101158.16;5055584;28;20459;-43
2021/06/28 02:17:07;;;;;;;24.20;16.10;;;;;;;24.86;49.67;101155.16;5036494;28;20500;-42
2021/06/28 02:19:35;;;;;;;21.40;16.27;;;;;;;25.07;49.17;101153.19;5056781;28;20475;-43
2021/06/28 02:22:03;;;;;;;27.57;16.80;;;;;;;24.91;49.30;101150.72;5035950;28;20486;-43
2021/06/28 02:24:30;;;;;;;26.37;18.17;;;;;;;24.81;50.04;101151.69;5037437;28;20492;-43
2021/06/28 02:27:00;;;;;;;30.17;18.90;;;;;;;25.13;49.42;101155.75;5036668;28;20481;-43
2021/06/28 02:29:27;;;;;;;24.10;15.70;;;;;;;24.81;49.84;101155.22;5056678;28;20793;-45
2021/06/28 02:31:55;;;;;;;26.87;18.50;;;;;;;24.94;49.01;101149.81;5055922;28;20482;-45
2021/06/28 02:34:24;;;;;;;24.40;17.60;;;;;;;24.73;50.12;101150.88;5057184;28;20522;-46
2021/06/28 02:36:52;;;;;;;25.67;16.93;;;;;;;24.58;50.29;101152.81;5049119;28;20484;-44
2021/06/28 02:39:19;;;;;;;25.70;17.20;;;;;;;24.73;50.33;101145.63;5056894;28;20497;-46
2021/06/28 02:41:47;;;;;;;24.00;17.27;;;;;;;24.58;50.36;101152.81;5055719;28;21018;-43
2021/06/28 02:44:14;;;;;;;24.97;17.63;;;;;;;24.86;49.60;101143.75;5056984;28;20553;-45
2021/06/28 02:46:42;;;;;;;26.10;17.97;;;;;;;24.91;49.40;101149.84;5048502;28;20779;-45
2021/06/28 02:49:09;;;;;;;27.77;18.60;;;;;;;25.16;48.69;101139.84;5069416;28;20478;-45
2021/06/28 02:51:38;;;;;;;26.13;19.20;;;;;;;25.15;48.80;101139.84;5055276;28;20470;-43
2021/06/28 02:54:06;;;;;;;24.67;15.97;;;;;;;25.01;48.81;101140.06;5056741;28;20465;-44
2021/06/28 02:56:33;;;;;;;25.30;17.17;;;;;;;24.50;50.15;101134.44;5055312;28;20553;-44
2021/06/28 02:59:01;;;;;;;27.50;18.30;;;;;;;24.92;49.22;101136.63;5056489;28;20460;-43
2021/06/28 03:01:29;;;;;;;25.63;17.93;;;;;;;25.16;48.88;101126.66;5055114;28;20467;-46
2021/06/28 03:03:57;;;;;;;28.23;18.03;;;;;;;24.94;49.31;101137.50;5056763;28;20845;-43
2021/06/28 03:06:24;;;;;;;26.63;17.27;;;;;;;24.96;49.44;101131.31;5054956;28;20969;-46
2021/06/28 03:08:53;;;;;;;29.50;18.97;;;;;;;24.70;50.21;101135.97;5055842;28;20482;-46
2021/06/28 03:11:21;;;;;;;27.10;18.17;;;;;;;24.68;50.40;101137.75;5055187;28;20463;-44
2021/06/28 03:13:49;;;;;;;24.87;17.17;;;;;;;24.66;50.46;101139.56;5056138;28;20797;-46
2021/06/28 03:16:17;;;;;;;25.40;17.60;;;;;;;24.86;49.78;101141.97;5055941;28;20466;-42
2021/06/28 03:18:47;;;;;;;31.20;19.37;;;;;;;24.53;50.49;101139.69;5055648;28;20463;-43
2021/06/28 03:21:14;;;;;;;30.30;18.60;;;;;;;25.05;49.11;101133.81;5056184;28;20458;-42
2021/06/28 03:23:43;;;;;;;25.10;17.00;;;;;;;25.13;48.74;101134.63;5054772;28;20489;-45
2021/06/28 03:26:13;;;;;;;29.17;18.37;;;;;;;24.94;49.00;101129.56;5055768;28;20486;-45
2021/06/28 03:28:40;;;;;;;25.90;18.73;;;;;;;25.15;49.03;101135.47;5061158;28;20490;-44
2021/06/28 03:31:09;;;;;;;24.80;17.33;;;;;;;25.32;48.29;101142.25;5056105;28;20477;-44
2021/06/28 03:33:37;;;;;;;27.07;18.27;;;;;;;24.90;49.61;101138.41;5060129;28;20847;-47
2021/06/28 03:36:06;;;;;;;29.90;19.00;;;;;;;25.07;48.95;101145.25;5055481;28;20466;-45
2021/06/28 03:38:33;;;;;;;29.20;20.17;;;;;;;25.16;48.99;101139.84;5059162;28;20497;-46
2021/06/28 03:41:01;;;;;;;27.17;16.63;;;;;;;24.89;49.25;101141.94;5055709;28;21035;-45
2021/06/28 03:43:30;;;;;;;25.00;16.70;;;;;;;25.22;48.71;101138.88;5060231;28;20496;-46
2021/06/28 03:45:57;;;;;;;25.70;17.27;;;;;;;25.14;49.21;101139.00;5055497;28;20489;-44
2021/06/28 03:48:25;;;;;;;27.90;17.23;;;;;;;25.02;49.34;101149.72;5056345;28;20788;-45
2021/06/28 03:50:53;;;;;;;24.83;17.80;;;;;;;25.21;48.45;101151.22;5055931;28;20790;-44
2021/06/28 03:53:21;;;;;;;25.67;16.40;;;;;;;25.56;47.91;101142.84;5054340;28;20792;-47
2021/06/28 03:55:48;;;;;;;23.23;16.60;;;;;;;25.40;48.46;101147.44;5055235;28;20552;-46
2021/06/28 03:58:16;;;;;;;25.73;17.30;;;;;;;25.19;49.11;101145.09;5054207;28;20929;-44
2021/06/28 04:00:46;;;;;;;23.60;16.97;;;;;;;25.24;49.10;101157.34;5055501;28;20950;-42
2021/06/28 04:03:15;;;;;;;23.27;15.90;;;;;;;25.55;47.98;101156.94;5054444;28;20475;-43
2021/06/28 04:05:43;;;;;;;21.27;14.97;;;;;;;25.58;48.29;101152.50;5055106;28;20486;-45
2021/06/28 04:08:10;;;;;;;22.70;15.80;;;;;;;25.53;47.97;101146.41;5053944;28;20927;-44
2021/06/28 04:10:38;;;;;;;24.70;15.80;;;;;;;25.41;48.82;101150.06;5055317;28;20485;-45
2021/06/28 04:13:06;;;;;;;28.63;16.13;;;;;;;25.46;48.27;101142.97;5054124;28;20503;-46
2021/06/28 04:15:33;;;;;;;24.33;17.03;;;;;;;25.38;48.57;101144.81;5055077;28;20452;-46
2021/06/28 04:18:03;;;;;;;27.97;17.73;;;;;;;25.46;48.03;101148.25;5054250;28;20483;-48
2021/06/28 04:20:31;;;;;;;22.60;15.40;;;;;;;25.31;48.79;101143.16;5055220;28;20487;-48
2021/06/28 04:22:58;;;;;;;26.20;14.33;;;;;;;25.58;47.94;101149.84;5053854;28;20507;-43
2021/06/28 04:25:26;;;;;;;21.40;15.50;;;;;;;25.46;48.65;101145.59;5055178;28;20460;-44
2021/06/28 04:27:54;;;;;;;25.40;17.80;;;;;;;25.59;48.43;101145.47;5053945;28;20490;-46
2021/06/28 04:30:22;;;;;;;22.03;15.87;;;;;;;25.84;47.51;101150.38;5055219;28;20481;-42
2021/06/28 04:32:51;;;;;;;20.57;13.90;;;;;;;25.98;47.48;101153.63;5054007;28;20488;-46
2021/06/28 04:35:21;;;;;;;19.83;15.03;;;;;;;25.83;47.66;101156.53;5054694;28;20632;-45
2021/06/28 04:37:50;;;;;;;20.40;13.90;;;;;;;25.82;47.68;101152.13;5053847;28;20511;-42
2021/06/28 04:40:19;;;;;;;24.13;13.40;;;;;;;25.70;48.16;101148.81;5057519;28;20879;-43
2021/06/28 04:42:47;;;;;;;18.80;13.63;;;;;;;25.87;47.61;101147.66;5058034;28;20479;-44
2021/06/28 04:45:17;;;;;;;19.67;13.63;;;;;;;26.08;47.56;101156.13;5059189;28;20461;-45
2021/06/28 04:47:45;;;;;;;17.00;12.80;;;;;;;25.80;47.77;101154.81;5057262;28;20487;-45
2021/06/28 04:50:14;;;;;;;18.60;12.60;;;;;;;25.67;47.97;101148.84;5059153;28;20478;-44
2021/06/28 04:52:44;;;;;;;19.07;13.47;;;;;;;25.60;48.28;101155.13;5056232;28;20484;-45
2021/06/28 04:55:13;;;;;;;23.23;13.60;;;;;;;26.05;47.78;101146.50;5063870;28;20462;-47
2021/06/28 04:57:41;;;;;;;20.00;13.50;;;;;;;26.07;47.39;101143.81;5056797;28;20481;-43
2021/06/28 05:00:11;;;;;;;22.20;15.30;;;;;;;26.12;47.55;101141.97;5058796;28;20479;-44
2021/06/28 05:02:38;;;;;;;19.87;14.27;;;;;;;26.22;46.80;101138.28;5057429;28;20914;-43
2021/06/28 05:05:07;;;;;;;18.23;13.03;;;;;;;25.75;47.94;101143.44;5058976;28;20456;-45
2021/06/28 05:07:34;;;;;;;17.93;12.30;;;;;;;26.15;47.17;101132.19;5057162;28;20486;-47
2021/06/28 05:10:04;;;;;;;17.70;12.30;;;;;;;25.87;47.91;101131.78;5058318;28;20966;-47
2021/06/28 05:12:32;;;;;;;19.47;13.03;;;;;;;26.05;47.80;101133.28;5057389;28;20493;-43
2021/06/28 05:15:00;;;;;;;19.20;11.97;;;;;;;25.91;48.31;101130.84;5058141;28;20466;-43
2021/06/28 05:17:27;;;;;;;16.27;11.47;;;;;;;26.11;47.56;101130.53;5057067;28;20858;-45
2021/06/28 05:19:55;;;;;;;17.70;11.97;;;;;;;26.49;46.84;101128.09;5058284;28;20960;-44
2021/06/28 05:22:22;;;;;;;21.43;12.70;;;;;;;26.69;46.45;101129.47;5057103;28;20493;-46
2021/06/28 05:24:50;;;;;;;24.03;12.23;;;;;;;26.62;46.34;101130.50;5058422;28;20473;-45
2021/06/28 05:27:19;;;;;;;15.50;11.23;;;;;;;26.63;46.51;101132.25;5056541;28;20801;-44
2021/06/28 05:29:46;;;;;;;17.87;11.40;;;;;;;26.76;46.15;101128.44;5058296;28;20481;-43
2021/06/28 05:32:14;;;;;;;16.50;11.40;;;;;;;26.91;45.64;101129.09;5057060;28;20493;-44
2021/06/28 05:34:42;;;;;;;12.90;9.80;;;;;;;26.56;46.77;101129.72;5058149;28;20960;-43
2021/06/28 05:37:09;;;;;;;14.23;9.80;;;;;;;27.04;45.54;101133.22;5053741;28;20481;-45
2021/06/28 05:39:37;;;;;;;14.37;9.60;;;;;;;27.31;45.17;101136.16;5058104;28;20791;-49
2021/06/28 05:42:05;;;;;;;16.73;9.60;;;;;;;27.00;45.84;101125.34;5056434;28;20481;-44
2021/06/28 05:44:34;;;;;;;13.63;10.40;;;;;;;27.20;45.20;101127.56;5058253;28;20462;-43
2021/06/28 05:47:01;;;;;;;14.30;10.70;;;;;;;27.37;45.04;101129.84;5052974;28;20479;-43
2021/06/28 05:49:30;;;;;;;13.70;9.47;;;;;;;27.46;45.05;101128.75;5057836;28;20533;-49
2021/06/28 05:51:58;;;;;;;16.60;10.80;;;;;;;27.64;44.38;101130.16;5051676;28;20479;-46
2021/06/28 05:54:26;;;;;;;16.47;9.87;;;;;;;27.70;44.31;101127.34;5057811;28;20466;-46
2021/06/28 05:56:53;;;;;;;19.80;9.80;;;;;;;27.55;44.56;101133.84;5054564;28;20478;-44
2021/06/28 05:59:21;;;;;;;14.60;9.53;;;;;;;27.89;43.98;101126.91;5057839;28;20489;-45
2021/06/28 06:01:50;;;;;;;16.27;10.03;;;;;;;27.80;43.84;101125.34;5050509;28;20484;-44
2021/06/28 06:04:18;;;;;;;16.07;9.40;;;;;;;27.81;43.84;101123.53;5069314;28;20459;-43
2021/06/28 06:06:46;;;;;;;14.47;9.30;;;;;;;27.90;44.18;101124.19;5048683;28;20552;-44
2021/06/28 06:09:13;;;;;;;14.10;9.30;;;;;;;27.96;44.01;101132.91;5057362;28;20482;-43
2021/06/28 06:11:41;;;;;;;14.60;9.53;;;;;;;27.78;44.37;101135.09;5052442;28;20482;-47
2021/06/28 06:14:08;;;;;;;12.20;8.77;;;;;;;27.64;45.00;101138.09;5057499;28;20780;-46
2021/06/28 06:16:36;;;;;;;18.20;8.60;;;;;;;28.26;43.73;101130.41;5055996;28;20462;-44
2021/06/28 06:19:05;;;;;;;12.70;9.00;;;;;;;28.37;43.14;101125.69;5057209;28;20482;-46
2021/06/28 06:21:33;;;;;;;11.53;8.33;;;;;;;28.27;43.61;101132.13;5056079;28;20451;-47
2021/06/28 06:24:01;;;;;;;17.13;10.73;;;;;;;28.17;43.59;101137.66;5056951;28;20554;-44
2021/06/28 06:26:28;;;;;;;24.80;17.10;;;;;;;28.44;43.07;101136.97;5055632;28;20893;-43
2021/06/28 06:28:56;;;;;;;29.53;20.37;;;;;;;28.41;42.89;101145.03;5056753;28;20488;-47
2021/06/28 06:31:23;;;;;;;20.67;14.20;;;;;;;29.00;42.11;101143.38;5048749;28;20451;-45
2021/06/28 06:33:51;;;;;;;13.40;9.63;;;;;;;28.95;42.13;101140.88;5056831;28;20491;-44
2021/06/28 06:36:21;;;;;;;13.30;8.57;;;;;;;29.23;41.97;101149.81;5056610;28;20478;-45
2021/06/28 06:38:48;;;;;;;14.90;10.20;;;;;;;29.00;42.69;101137.22;5056595;28;20474;-45
2021/06/28 06:41:16;;;;;;;14.13;9.80;;;;;;;29.37;41.89;101141.38;5056742;28;20463;-43
2021/06/28 06:43:43;;;;;;;12.03;9.10;;;;;;;29.40;41.39;101151.94;5055671;28;20490;-45
2021/06/28 06:46:11;;;;;;;19.07;12.03;;;;;;;29.67;40.88;101151.16;5056463;28;20813;-48
2021/06/28 06:48:39;;;;;;;11.93;8.37;;;;;;;29.90;40.51;101145.06;5055419;28;20480;-46
2021/06/28 06:51:06;;;;;;;12.93;8.10;;;;;;;29.69;41.64;101147.53;5056633;28;20944;-44
2021/06/28 06:53:35;;;;;;;57.13;41.20;;;;;;;29.93;41.10;101150.25;5055336;28;20484;-44
2021/06/28 06:56:06;;;;;;;33.03;22.07;;;;;;;29.75;40.77;101142.00;5056411;28;20455;-44
2021/06/28 06:58:34;;;;;;;17.23;10.90;;;;;;;30.10;40.43;101146.19;5055379;28;20475;-45
2021/06/28 07:01:03;;;;;;;15.80;10.40;;;;;;;29.94;39.53;101143.16;5056486;28;20479;-45
2021/06/28 07:03:30;;;;;;;19.50;12.93;;;;;;;30.39;38.62;101146.97;5054894;28;20816;-46
2021/06/28 07:05:58;;;;;;;12.30;8.43;;;;;;;30.31;38.47;101145.44;5055885;28;20459;-43
2021/06/28 07:08:25;;;;;;;9.53;7.27;;;;;;;30.59;38.36;101144.47;5060789;28;20487;-46
2021/06/28 07:10:54;;;;;;;13.13;8.20;;;;;;;30.28;38.28;101145.56;5056243;28;20475;-46
2021/06/28 07:13:22;;;;;;;18.17;10.80;;;;;;;30.64;39.10;101141.63;5053663;28;20482;-44
2021/06/28 07:15:49;;;;;;;21.13;15.17;;;;;;;30.57;38.26;101141.00;5055820;28;20543;-45
2021/06/28 07:18:17;;;;;;;15.43;8.97;;;;;;;30.36;38.80;101139.09;5054923;28;20870;-43
2021/06/28 07:20:45;;;;;;;44.67;33.33;;;;;;;31.05;37.83;101142.78;5056249;28;20486;-45
2021/06/28 07:23:12;;;;;;;9.30;6.60;;;;;;;31.30;37.12;101142.75;5054773;28;20488;-44
2021/06/28 07:25:40;;;;;;;10.20;6.60;;;;;;;31.22;37.00;101142.16;5055854;28;20469;-45
2021/06/28 07:28:10;;;;;;;11.00;5.37;;;;;;;31.17;36.00;101139.66;5054351;28;20494;-44
2021/06/28 07:30:40;;;;;;;10.50;7.60;;;;;;;31.07;35.72;101152.47;5055839;28;20485;-43
2021/06/28 07:33:08;;;;;;;112.17;75.70;;;;;;;31.24;35.74;101145.63;5059214;28;20821;-46
2021/06/28 07:35:36;;;;;;;10.10;5.67;;;;;;;31.04;36.08;101144.63;5057195;28;20464;-48
2021/06/28 07:38:05;;;;;;;10.10;5.27;;;;;;;31.73;35.75;101141.94;5054437;28;20479;-42
2021/06/28 07:40:32;;;;;;;8.37;5.57;;;;;;;31.73;35.13;101155.28;5055859;28;20493;-46
2021/06/28 07:43:01;;;;;;;10.87;5.30;;;;;;;31.60;34.37;101155.78;5054538;28;20490;-44
2021/06/28 07:45:30;;;;;;;8.93;5.13;;;;;;;31.83;34.57;101155.75;5055530;28;20456;-47
2021/06/28 07:48:02;;;;;;;8.47;5.07;;;;;;;31.82;34.57;101149.53;5054577;28;20483;-47
2021/06/28 07:50:30;;;;;;;7.63;5.30;;;;;;;31.98;34.79;101146.28;5055766;28;20789;-47
2021/06/28 07:52:57;;;;;;;9.37;5.63;;;;;;;32.17;34.07;101146.34;5055491;28;20482;-43
2021/06/28 07:55:25;;;;;;;8.27;5.80;;;;;;;32.26;34.62;101150.41;5058147;28;20460;-46
2021/06/28 07:57:52;;;;;;;8.27;5.47;;;;;;;32.44;34.03;101133.59;5054278;28;20486;-47
2021/06/28 08:00:21;;;;;;;7.90;5.10;;;;;;;32.40;33.88;101134.66;5055370;28;20487;-46
2021/06/28 08:02:50;;;;;;;9.90;5.00;;;;;;;32.24;33.51;101144.28;5056799;28;20490;-45
2021/06/28 08:05:18;;;;;;;8.60;5.10;;;;;;;32.26;33.48;101145.06;5059586;28;20459;-43
2021/06/28 08:07:46;;;;;;;8.97;5.57;;;;;;;32.09;34.20;101133.31;5053718;28;20936;-43
2021/06/28 08:10:15;;;;;;;6.77;5.00;;;;;;;32.42;33.19;101132.81;5055117;28;20489;-47
2021/06/28 08:12:44;;;;;;;9.60;7.57;;;;;;;32.11;33.71;101126.13;5054245;28;20511;-44
2021/06/28 08:15:15;;;;;;;8.17;5.53;;;;;;;32.33;33.40;101125.16;5054827;28;20814;-44
2021/06/28 08:17:42;;;;;;;7.53;5.03;;;;;;;32.57;33.23;101119.72;5054014;28;20483;-46
2021/06/28 08:20:13;;;;;;;7.93;5.20;;;;;;;32.72;33.23;101120.81;5055200;28;20479;-45
2021/06/28 08:22:41;;;;;;;7.70;5.67;;;;;;;32.46;33.37;101121.03;5054119;28;20475;-45
2021/06/28 08:25:10;;;;;;;11.47;5.40;;;;;;;32.50;32.98;101126.25;5055508;28;20740;-44
2021/06/28 08:27:37;;;;;;;8.30;4.63;;;;;;;32.62;32.47;101114.16;5053629;28;20925;-46
2021/06/28 08:30:07;;;;;;;9.00;4.83;;;;;;;32.81;32.67;101124.84;5054919;28;20562;-49
2021/06/28 08:32:35;;;;;;;8.30;5.40;;;;;;;32.91;32.05;101112.78;5053542;28;20475;-43
2021/06/28 08:35:04;;;;;;;7.40;5.03;;;;;;;32.95;32.24;101119.75;5055203;28;20812;-44
2021/06/28 08:37:33;;;;;;;10.17;6.30;;;;;;;32.31;32.73;101111.03;5053166;28;20561;-44
2021/06/28 08:40:00;;;;;;;10.03;6.73;;;;;;;32.76;31.86;101105.50;5061278;28;20869;-46
2021/06/28 08:42:28;;;;;;;14.10;5.57;;;;;;;32.95;31.28;101103.72;5053154;28;20874;-46
2021/06/28 08:44:56;;;;;;;9.50;4.67;;;;;;;33.25;31.02;101102.31;5061660;28;20768;-45
2021/06/28 08:47:24;;;;;;;6.90;4.43;;;;;;;33.39;31.18;101104.31;5053334;28;20783;-47
2021/06/28 08:49:52;;;;;;;10.57;5.50;;;;;;;33.68;31.58;101102.03;5055125;28;20792;-49
2021/06/28 08:52:20;;;;;;;10.10;6.40;;;;;;;33.13;31.91;101101.97;5053846;28;20783;-44
2021/06/28 08:54:49;;;;;;;8.30;5.80;;;;;;;32.60;32.07;101095.53;5055198;28;20454;-44
2021/06/28 08:57:18;;;;;;;7.33;5.47;;;;;;;33.16;31.75;101098.28;5053396;28;20486;-47
2021/06/28 08:59:46;;;;;;;6.87;4.67;;;;;;;33.87;30.30;101093.06;5054450;28;20476;-44
2021/06/28 09:02:13;;;;;;;7.73;5.27;;;;;;;33.84;30.04;101088.75;5053521;28;20498;-43
2021/06/28 09:04:57;;;;;;;9.47;5.87;;;;;;;33.66;30.75;101095.88;5054885;28;20470;-48
2021/06/28 09:07:24;;;;;;;8.50;5.10;;;;;;;34.02;29.64;101097.59;5053473;28;20479;-47
2021/06/28 09:09:53;;;;;;;7.43;5.20;;;;;;;33.10;31.09;101091.44;5054529;28;20487;-44
2021/06/28 09:12:21;;;;;;;7.87;5.57;;;;;;;34.04;30.27;101093.06;5053515;28;20566;-46
2021/06/28 09:14:50;;;;;;;12.27;5.90;;;;;;;34.26;29.97;101093.75;5055113;28;20826;-45
2021/06/28 09:17:31;;;;;;;9.67;5.43;;;;;;;34.16;29.89;101080.88;5051845;28;20565;-44
2021/06/28 09:20:13;;;;;;;9.30;5.03;;;;;;;34.30;28.96;101088.13;5060987;28;20489;-45
2021/06/28 09:22:42;;;;;;;7.00;4.93;;;;;;;34.16;29.12;101085.34;5053194;28;20483;-44
2021/06/28 09:25:29;;;;;;;8.63;5.40;;;;;;;33.49;30.72;101078.88;5060022;28;20455;-46
2021/06/28 09:27:56;;;;;;;8.77;5.20;;;;;;;33.83;30.52;101083.47;5056928;28;20479;-45
2021/06/28 09:30:24;;;;;;;8.00;5.53;;;;;;;34.17;29.85;101079.03;5058212;28;20479;-46
2021/06/28 09:32:53;;;;;;;8.23;5.03;;;;;;;34.81;28.36;101081.84;5056932;28;20513;-45
2021/06/28 09:35:32;;;;;;;11.10;6.70;;;;;;;34.38;28.85;101071.66;5057988;28;20767;-46
2021/06/28 09:38:03;;;;;;;6.50;4.77;;;;;;;35.02;28.57;101086.97;5059855;28;20955;-45
2021/06/28 09:40:32;;;;;;;8.70;4.60;;;;;;;34.44;28.13;101081.19;5060549;28;20581;-45
2021/06/28 09:43:20;;;;;;;6.53;4.47;;;;;;;34.40;27.50;101084.97;5053647;28;20577;-46
2021/06/28 09:45:51;;;;;;;7.20;4.77;;;;;;;34.76;27.63;101080.38;5057599;28;20455;-43
2021/06/28 09:48:23;;;;;;;8.77;5.10;;;;;;;34.86;28.67;101090.47;5062437;28;20490;-44
2021/06/28 09:50:51;;;;;;;7.00;4.37;;;;;;;34.99;26.48;101079.06;5058040;28;20562;-45
2021/06/28 09:53:30;;;;;;;7.00;4.60;;;;;;;35.31;26.72;101084.44;5062557;28;20486;-46
2021/06/28 09:55:59;;;;;;;7.47;4.37;;;;;;;34.69;27.40;101079.84;5057486;28;20455;-45
2021/06/28 09:58:27;;;;;;;5.80;3.80;;;;;;;35.39;27.56;101084.88;5055185;28;20482;-45
2021/06/28 10:00:56;;;;;;;8.60;4.60;;;;;;;35.30;26.33;101077.34;5057617;28;20983;-48
2021/06/28 10:03:27;;;;;;;6.63;4.33;;;;;;;35.80;25.73;101077.16;5061714;28;20482;-47
2021/06/28 10:06:01;;;;;;;7.17;4.47;;;;;;;35.80;24.97;101069.09;5057272;28;20901;-47
2021/06/28 10:08:32;;;;;;;6.20;4.30;;;;;;;34.44;26.39;101075.84;5052247;28;20481;-47
2021/06/28 10:11:12;;;;;;;9.97;4.00;;;;;;;34.81;25.78;101063.09;5057361;28;20480;-48
2021/06/28 10:13:40;;;;;;;6.40;4.20;;;;;;;34.37;26.45;101067.25;5060852;28;20947;-45
2021/06/28 10:16:09;;;;;;;8.50;3.90;;;;;;;34.64;26.16;101066.72;5057106;28;20460;-49
2021/06/28 10:18:38;;;;;;;8.57;4.87;;;;;;;34.87;25.43;101061.91;5061772;28;20561;-43
2021/06/28 10:21:07;;;;;;;8.10;4.13;;;;;;;35.44;24.47;101064.94;5057166;28;20502;-45
2021/06/28 10:23:35;;;;;;;6.00;3.83;;;;;;;35.69;25.09;101061.69;5055801;28;20890;-47
2021/06/28 10:26:03;;;;;;;7.00;4.60;;;;;;;36.24;24.52;101063.78;5056980;28;20540;-47
2021/06/28 10:28:34;;;;;;;8.07;3.87;;;;;;;36.35;23.87;101064.00;5055785;28;20797;-46
2021/06/28 10:31:02;;;;;;;8.47;5.00;;;;;;;35.83;24.96;101063.56;5057396;28;20851;-44
2021/06/28 10:33:30;;;;;;;6.37;3.90;;;;;;;36.21;24.67;101060.34;5062245;28;20477;-46
2021/06/28 10:36:00;;;;;;;10.77;4.67;;;;;;;36.25;24.82;101055.66;5056568;28;20471;-45
2021/06/28 10:38:43;;;;;;;7.00;4.30;;;;;;;36.03;24.23;101053.41;5060688;28;20510;-44
2021/06/28 10:41:11;;;;;;;8.53;4.63;;;;;;;36.89;23.24;101057.00;5037080;28;20990;-47
2021/06/28 10:43:41;;;;;;;12.70;7.07;;;;;;;35.68;23.57;101051.94;5042089;28;20487;-48
2021/06/28 10:46:10;;;;;;;6.23;4.00;;;;;;;35.09;25.16;101048.16;5036352;28;20460;-44
2021/06/28 10:48:46;;;;;;;6.60;4.17;;;;;;;35.97;23.33;101051.97;5041880;28;20491;-43
2021/06/28 10:51:23;;;;;;;7.00;3.77;;;;;;;36.38;22.58;101054.88;5048052;28;20455;-46
2021/06/28 10:54:04;;;;;;;9.13;6.30;;;;;;;35.97;23.64;101053.78;5056259;28;20459;-46
2021/06/28 10:56:49;;;;;;;10.70;6.83;;;;;;;36.26;23.24;101064.56;5054803;28;20474;-46
2021/06/28 10:59:42;;;;;;;9.60;7.20;;;;;;;36.49;22.54;101053.22;5056506;28;20475;-45
2021/06/28 11:02:12;;;;;;;6.83;4.40;;;;;;;36.18;22.56;101049.78;5046101;28;20482;-47
2021/06/28 11:04:42;;;;;;;16.70;13.53;;;;;;;36.26;23.22;101048.44;5056532;28;20768;-48
2021/06/28 11:07:17;;;;;;;7.13;4.43;;;;;;;36.49;22.53;101046.97;5051169;28;20479;-44
2021/06/28 11:09:51;;;;;;;6.80;4.00;;;;;;;36.91;22.77;101041.66;5064139;28;20947;-49
2021/06/28 11:12:29;;;;;;;6.17;3.90;;;;;;;36.94;23.07;101041.44;5052508;28;20569;-47
2021/06/28 11:15:00;;;;;;;7.53;4.03;;;;;;;35.78;23.06;101053.09;5062696;28;20460;-44
2021/06/28 11:17:46;;;;;;;8.73;5.30;;;;;;;35.99;23.74;101050.06;5054532;28;20537;-45
2021/06/28 11:20:22;;;;;;;8.73;5.40;;;;;;;36.43;22.70;101047.38;5056111;28;20476;-45
2021/06/28 11:22:53;;;;;;;15.10;11.17;;;;;;;36.20;23.61;101045.19;5053725;28;20913;-44
2021/06/28 11:25:24;;;;;;;13.70;10.10;;;;;;;36.33;22.35;101037.22;5056091;28;20455;-50